createdAt,value
2017-05-03T04:00:34.284Z,8.1
2017-05-03T04:00:59.818Z,8.1
2017-05-03T04:01:25.249Z,8.12
2017-05-03T04:01:50.736Z,8.12
2017-05-03T04:02:16.235Z,8.13
2017-05-03T04:02:41.627Z,8.12
2017-05-03T04:03:07.104Z,8.12
2017-05-03T04:03:32.543Z,8.18
2017-05-03T04:03:58.023Z,8.18
2017-05-03T04:04:23.494Z,8.23
2017-05-03T04:04:48.992Z,8.19
2017-05-03T04:05:14.432Z,8.24
2017-05-03T04:05:39.945Z,8.19
2017-05-03T04:06:05.402Z,8.15
2017-05-03T04:06:30.871Z,8.27
2017-05-03T04:06:56.348Z,8.18
2017-05-03T04:07:21.854Z,8.23
2017-05-03T04:07:47.342Z,8.23
2017-05-03T04:08:12.802Z,8.23
2017-05-03T04:08:38.311Z,8.2
2017-05-03T04:09:03.778Z,8.24
2017-05-03T04:09:29.279Z,8.18
2017-05-03T04:09:54.781Z,8.2
2017-05-03T04:10:20.240Z,8.19
2017-05-03T04:10:45.731Z,8.23
2017-05-03T04:11:11.244Z,8.24
2017-05-03T04:11:36.737Z,8.13
2017-05-03T04:12:02.206Z,8.12
2017-05-03T04:12:27.676Z,8.19
2017-05-03T04:12:53.175Z,8.2
2017-05-03T04:13:18.620Z,8.19
2017-05-03T04:13:44.084Z,8.16
2017-05-03T04:14:09.511Z,8.2
2017-05-03T04:14:35.027Z,8.24
2017-05-03T04:15:00.514Z,8.16
2017-05-03T04:15:25.984Z,8.23
2017-05-03T04:15:51.548Z,8.16
2017-05-03T04:16:17.046Z,8.16
2017-05-03T04:16:42.535Z,8.19
2017-05-03T04:17:08.014Z,8.26
2017-05-03T04:17:33.502Z,8.2
2017-05-03T04:17:58.968Z,8.23
2017-05-03T04:18:24.480Z,8.23
2017-05-03T04:18:49.944Z,8.24
2017-05-03T04:19:15.396Z,8.24
2017-05-03T04:19:40.860Z,8.2
2017-05-03T04:20:06.335Z,8.28
2017-05-03T04:20:31.796Z,8.24
2017-05-03T04:20:57.319Z,8.19
2017-05-03T04:21:22.827Z,8.26
2017-05-03T04:21:48.335Z,8.23
2017-05-03T04:22:13.846Z,8.24
2017-05-03T04:22:39.320Z,8.24
2017-05-03T04:23:04.793Z,8.24
2017-05-03T04:23:30.258Z,8.23
2017-05-03T04:23:55.733Z,8.31
2017-05-03T04:24:21.230Z,8.23
2017-05-03T04:24:46.679Z,8.3
2017-05-03T04:25:12.147Z,8.31
2017-05-03T04:25:37.648Z,8.33
2017-05-03T04:26:03.137Z,8.24
2017-05-03T04:26:28.652Z,8.24
2017-05-03T04:26:54.119Z,8.24
2017-05-03T04:27:19.607Z,8.23
2017-05-03T04:27:45.060Z,8.2
2017-05-03T04:28:10.535Z,8.3
2017-05-03T04:28:36.029Z,8.31
2017-05-03T04:29:01.508Z,8.33
2017-05-03T04:29:26.973Z,8.31
2017-05-03T04:29:52.462Z,8.36
2017-05-03T04:30:17.956Z,8.33
2017-05-03T04:30:43.441Z,8.34
2017-05-03T04:31:08.917Z,8.37
2017-05-03T04:31:34.428Z,8.34
2017-05-03T04:31:59.914Z,8.33
2017-05-03T04:32:25.380Z,8.38
2017-05-03T04:32:50.838Z,8.38
2017-05-03T04:33:16.302Z,8.33
2017-05-03T04:33:41.770Z,8.45
2017-05-03T04:34:07.233Z,8.34
2017-05-03T04:34:32.696Z,8.31
2017-05-03T04:34:58.184Z,8.34
2017-05-03T04:35:23.665Z,8.37
2017-05-03T04:35:49.155Z,8.37
2017-05-03T04:36:14.628Z,8.48
2017-05-03T04:36:40.152Z,8.45
2017-05-03T04:37:05.638Z,8.42
2017-05-03T04:37:31.128Z,8.46
2017-05-03T04:37:56.612Z,8.41
2017-05-03T04:38:22.084Z,8.46
2017-05-03T04:38:47.539Z,8.42
2017-05-03T04:39:13.039Z,8.46
2017-05-03T04:39:38.528Z,8.42
2017-05-03T04:40:03.992Z,8.44
2017-05-03T04:40:29.444Z,8.42
2017-05-03T04:40:54.932Z,8.38
2017-05-03T04:41:20.480Z,8.51
2017-05-03T04:41:45.954Z,8.51
2017-05-03T04:42:11.441Z,8.51
2017-05-03T04:42:36.883Z,8.46
2017-05-03T04:43:02.364Z,8.46
2017-05-03T04:43:27.832Z,8.46
2017-05-03T04:43:53.329Z,8.48
2017-05-03T04:44:18.781Z,8.51
2017-05-03T04:44:44.287Z,8.45
2017-05-03T04:45:09.735Z,8.51
2017-05-03T04:45:35.225Z,8.53
2017-05-03T04:46:00.716Z,8.52
2017-05-03T04:46:26.183Z,8.6
2017-05-03T04:46:51.703Z,8.53
2017-05-03T04:47:17.239Z,8.48
2017-05-03T04:47:42.718Z,8.6
2017-05-03T04:48:08.219Z,8.55
2017-05-03T04:48:33.648Z,8.58
2017-05-03T04:48:59.087Z,8.49
2017-05-03T04:49:24.561Z,8.56
2017-05-03T04:49:50.105Z,8.61
2017-05-03T04:50:15.556Z,8.49
2017-05-03T04:50:41.022Z,8.52
2017-05-03T04:51:06.520Z,8.56
2017-05-03T04:51:31.986Z,8.56
2017-05-03T04:51:57.458Z,8.61
2017-05-03T04:52:22.972Z,8.51
2017-05-03T04:52:48.401Z,8.45
2017-05-03T04:53:13.923Z,8.53
2017-05-03T04:53:39.407Z,8.58
2017-05-03T04:54:04.903Z,8.61
2017-05-03T04:54:30.392Z,8.49
2017-05-03T04:54:55.860Z,8.49
2017-05-03T04:55:21.327Z,8.56
2017-05-03T04:55:46.817Z,8.55
2017-05-03T04:56:12.302Z,8.46
2017-05-03T04:56:37.779Z,8.56
2017-05-03T04:57:03.221Z,8.61
2017-05-03T04:57:28.690Z,8.55
2017-05-03T04:57:54.178Z,8.6
2017-05-03T04:58:19.666Z,8.48
2017-05-03T04:58:45.109Z,8.58
2017-05-03T04:59:10.628Z,8.58
2017-05-03T04:59:36.101Z,8.58
2017-05-03T05:00:01.571Z,8.48
2017-05-03T05:00:27.018Z,8.6
2017-05-03T05:00:52.484Z,8.67
2017-05-03T05:01:17.983Z,8.58
2017-05-03T05:01:43.472Z,8.55
2017-05-03T05:02:08.941Z,8.6
2017-05-03T05:02:34.399Z,8.51
2017-05-03T05:02:59.892Z,8.46
2017-05-03T05:03:25.379Z,8.51
2017-05-03T05:03:50.800Z,8.61
2017-05-03T05:04:16.267Z,8.58
2017-05-03T05:04:41.740Z,8.55
2017-05-03T05:05:07.193Z,8.58
2017-05-03T05:05:32.658Z,8.61
2017-05-03T05:05:58.131Z,8.52
2017-05-03T05:06:23.613Z,8.56
2017-05-03T05:06:49.158Z,8.58
2017-05-03T05:07:14.615Z,8.56
2017-05-03T05:07:40.097Z,8.55
2017-05-03T05:08:05.603Z,8.55
2017-05-03T05:08:31.060Z,8.55
2017-05-03T05:08:56.574Z,8.51
2017-05-03T05:09:22.035Z,8.61
2017-05-03T05:09:47.540Z,8.61
2017-05-03T05:10:13.031Z,8.55
2017-05-03T05:10:38.487Z,8.46
2017-05-03T05:11:03.965Z,8.58
2017-05-03T05:11:29.452Z,8.6
2017-05-03T05:11:54.950Z,8.67
2017-05-03T05:12:20.453Z,8.58
2017-05-03T05:12:45.992Z,8.61
2017-05-03T05:13:11.453Z,8.7
2017-05-03T05:13:36.962Z,8.63
2017-05-03T05:14:02.443Z,8.49
2017-05-03T05:14:27.948Z,8.6
2017-05-03T05:14:53.449Z,8.61
2017-05-03T05:15:18.922Z,8.61
2017-05-03T05:15:44.401Z,8.61
2017-05-03T05:16:09.881Z,8.51
2017-05-03T05:16:35.366Z,8.61
2017-05-03T05:17:00.804Z,8.52
2017-05-03T05:17:26.291Z,8.51
2017-05-03T05:17:51.760Z,8.67
2017-05-03T05:18:17.281Z,8.66
2017-05-03T05:18:42.741Z,8.64
2017-05-03T05:19:08.228Z,8.64
2017-05-03T05:19:33.698Z,8.55
2017-05-03T05:19:59.228Z,8.67
2017-05-03T05:20:24.800Z,8.58
2017-05-03T05:20:50.284Z,8.67
2017-05-03T05:21:15.765Z,8.61
2017-05-03T05:21:41.241Z,8.67
2017-05-03T05:22:06.746Z,8.63
2017-05-03T05:22:32.217Z,8.61
2017-05-03T05:22:57.721Z,8.69
2017-05-03T05:23:23.608Z,8.67
2017-05-03T05:23:49.155Z,8.61
2017-05-03T05:24:14.632Z,8.69
2017-05-03T05:25:08.320Z,8.7
2017-05-03T05:25:33.756Z,8.67
2017-05-03T05:25:59.176Z,8.74
2017-05-03T05:26:24.800Z,8.73
2017-05-03T05:26:50.378Z,8.71
2017-05-03T05:27:15.847Z,8.73
2017-05-03T05:27:41.357Z,8.73
2017-05-03T05:28:06.892Z,8.76
2017-05-03T05:28:32.370Z,8.63
2017-05-03T05:28:57.849Z,8.76
2017-05-03T05:29:23.391Z,8.71
2017-05-03T05:29:48.933Z,8.71
2017-05-03T05:30:14.386Z,8.76
2017-05-03T05:30:39.961Z,8.74
2017-05-03T05:31:05.406Z,8.74
2017-05-03T05:31:30.941Z,8.76
2017-05-03T05:31:56.513Z,8.74
2017-05-03T05:32:22.048Z,8.82
2017-05-03T05:32:47.558Z,8.81
2017-05-03T05:33:13.070Z,8.78
2017-05-03T05:33:38.617Z,8.81
2017-05-03T05:34:04.066Z,8.78
2017-05-03T05:34:29.650Z,8.79
2017-05-03T05:34:55.197Z,8.82
2017-05-03T05:35:20.680Z,8.71
2017-05-03T05:35:46.166Z,8.81
2017-05-03T05:36:11.653Z,8.81
2017-05-03T05:36:37.133Z,8.85
2017-05-03T05:37:02.785Z,8.84
2017-05-03T05:37:28.257Z,8.81
2017-05-03T05:37:53.803Z,8.87
2017-05-03T05:38:19.312Z,8.71
2017-05-03T05:38:44.760Z,8.79
2017-05-03T05:39:10.286Z,8.79
2017-05-03T05:39:35.893Z,8.82
2017-05-03T05:40:01.315Z,8.71
2017-05-03T05:40:26.807Z,8.85
2017-05-03T05:40:52.306Z,8.82
2017-05-03T05:41:17.853Z,8.84
2017-05-03T05:41:43.365Z,8.84
2017-05-03T05:42:09.052Z,8.82
2017-05-03T05:42:34.514Z,8.85
2017-05-03T05:43:00.216Z,8.81
2017-05-03T05:43:25.675Z,8.73
2017-05-03T05:43:51.272Z,8.81
2017-05-03T05:44:16.663Z,8.76
2017-05-03T05:44:42.144Z,8.81
2017-05-03T05:45:07.659Z,8.73
2017-05-03T05:45:33.187Z,8.78
2017-05-03T05:45:58.762Z,8.74
2017-05-03T05:46:24.272Z,8.79
2017-05-03T05:46:49.727Z,8.81
2017-05-03T05:47:15.240Z,8.81
2017-05-03T05:47:40.717Z,8.89
2017-05-03T05:48:06.195Z,8.89
2017-05-03T05:48:31.705Z,8.95
2017-05-03T05:48:57.237Z,8.78
2017-05-03T05:49:22.827Z,8.85
2017-05-03T05:49:48.320Z,8.87
2017-05-03T05:50:13.849Z,8.89
2017-05-03T05:50:39.352Z,8.89
2017-05-03T05:51:04.840Z,8.82
2017-05-03T05:51:30.313Z,8.92
2017-05-03T05:51:55.806Z,8.94
2017-05-03T05:52:21.317Z,8.92
2017-05-03T05:52:46.825Z,8.88
2017-05-03T05:53:12.305Z,8.92
2017-05-03T05:53:37.773Z,8.89
2017-05-03T05:54:03.227Z,8.91
2017-05-03T05:54:28.724Z,8.89
2017-05-03T05:54:54.191Z,8.95
2017-05-03T05:55:19.673Z,9
2017-05-03T05:55:45.172Z,9.03
2017-05-03T05:56:10.660Z,9.1
2017-05-03T05:56:36.105Z,9.04
2017-05-03T05:57:01.591Z,9.1
2017-05-03T05:57:27.082Z,9.08
2017-05-03T05:57:52.578Z,9.03
2017-05-03T05:58:18.057Z,9.13
2017-05-03T05:58:43.572Z,9.06
2017-05-03T05:59:09.012Z,9.14
2017-05-03T05:59:34.545Z,9.08
2017-05-03T05:59:59.993Z,9.11
2017-05-03T06:00:25.476Z,9.11
2017-05-03T06:00:50.979Z,9.18
2017-05-03T06:01:16.427Z,9.19
2017-05-03T06:01:41.946Z,9.21
2017-05-03T06:02:07.434Z,9.22
2017-05-03T06:02:32.884Z,9.18
2017-05-03T06:02:58.374Z,9.26
2017-05-03T06:03:23.868Z,9.25
2017-05-03T06:03:49.400Z,9.25
2017-05-03T06:04:14.862Z,9.29
2017-05-03T06:04:40.323Z,9.29
2017-05-03T06:05:05.815Z,9.32
2017-05-03T06:05:31.334Z,9.26
2017-05-03T06:05:56.835Z,9.26
2017-05-03T06:06:22.306Z,9.34
2017-05-03T06:06:47.840Z,9.32
2017-05-03T06:07:13.299Z,9.36
2017-05-03T06:07:38.788Z,9.41
2017-05-03T06:08:04.269Z,9.39
2017-05-03T06:08:29.786Z,9.4
2017-05-03T06:08:55.271Z,9.39
2017-05-03T06:09:20.759Z,9.39
2017-05-03T06:09:46.243Z,9.48
2017-05-03T06:10:11.771Z,9.41
2017-05-03T06:10:37.229Z,9.56
2017-05-03T06:11:02.713Z,9.46
2017-05-03T06:11:28.344Z,9.51
2017-05-03T06:11:53.860Z,9.51
2017-05-03T06:12:19.357Z,9.5
2017-05-03T06:12:44.885Z,9.56
2017-05-03T06:13:10.382Z,9.5
2017-05-03T06:13:35.862Z,9.56
2017-05-03T06:14:01.368Z,9.55
2017-05-03T06:14:26.807Z,9.51
2017-05-03T06:14:52.327Z,9.56
2017-05-03T06:15:17.793Z,9.59
2017-05-03T06:15:43.306Z,9.55
2017-05-03T06:16:08.823Z,9.62
2017-05-03T06:16:34.295Z,9.55
2017-05-03T06:16:59.722Z,9.55
2017-05-03T06:17:25.175Z,9.56
2017-05-03T06:17:50.654Z,9.59
2017-05-03T06:18:16.122Z,9.56
2017-05-03T06:18:41.593Z,9.55
2017-05-03T06:19:07.094Z,9.51
2017-05-03T06:19:32.626Z,9.55
2017-05-03T06:19:58.090Z,9.59
2017-05-03T06:20:23.573Z,9.64
2017-05-03T06:20:49.107Z,9.64
2017-05-03T06:21:14.603Z,9.55
2017-05-03T06:21:40.105Z,9.64
2017-05-03T06:22:05.570Z,9.56
2017-05-03T06:22:31.054Z,9.54
2017-05-03T06:22:56.579Z,9.61
2017-05-03T06:23:22.118Z,9.61
2017-05-03T06:23:47.597Z,9.59
2017-05-03T06:24:13.091Z,9.61
2017-05-03T06:24:38.538Z,9.64
2017-05-03T06:25:03.997Z,9.66
2017-05-03T06:25:29.479Z,9.64
2017-05-03T06:25:54.962Z,9.66
2017-05-03T06:26:20.414Z,9.66
2017-05-03T06:26:45.864Z,9.66
2017-05-03T06:27:11.333Z,9.66
2017-05-03T06:27:36.810Z,9.69
2017-05-03T06:28:02.306Z,9.69
2017-05-03T06:28:27.828Z,9.65
2017-05-03T06:28:53.289Z,9.72
2017-05-03T06:29:18.749Z,9.73
2017-05-03T06:29:44.248Z,9.72
2017-05-03T06:30:09.756Z,9.64
2017-05-03T06:30:35.244Z,9.73
2017-05-03T06:31:00.769Z,9.82
2017-05-03T06:31:26.233Z,9.82
2017-05-03T06:31:51.734Z,9.76
2017-05-03T06:32:17.201Z,9.76
2017-05-03T06:32:42.653Z,9.82
2017-05-03T06:33:08.125Z,9.84
2017-05-03T06:33:33.610Z,9.94
2017-05-03T06:33:59.121Z,9.89
2017-05-03T06:34:24.613Z,9.84
2017-05-03T06:34:50.081Z,9.87
2017-05-03T06:35:15.537Z,9.99
2017-05-03T06:35:41.014Z,10.02
2017-05-03T06:36:06.584Z,10.09
2017-05-03T06:36:32.026Z,10.07
2017-05-03T06:36:57.497Z,10.2
2017-05-03T06:37:22.989Z,10.22
2017-05-03T06:37:48.468Z,10.16
2017-05-03T06:38:13.920Z,10.22
2017-05-03T06:38:39.411Z,10.33
2017-05-03T06:39:04.891Z,10.37
2017-05-03T06:39:30.363Z,10.41
2017-05-03T06:39:55.893Z,10.38
2017-05-03T06:40:21.356Z,10.38
2017-05-03T06:40:46.813Z,10.53
2017-05-03T06:41:12.301Z,10.49
2017-05-03T06:41:37.793Z,10.59
2017-05-03T06:42:03.363Z,10.61
2017-05-03T06:42:28.834Z,10.68
2017-05-03T06:42:54.312Z,10.71
2017-05-03T06:43:19.789Z,10.64
2017-05-03T06:43:45.282Z,10.75
2017-05-03T06:44:10.751Z,10.81
2017-05-03T06:44:36.258Z,10.93
2017-05-03T06:45:01.732Z,10.84
2017-05-03T06:45:27.167Z,10.92
2017-05-03T06:45:52.649Z,10.84
2017-05-03T06:46:18.166Z,11
2017-05-03T06:46:43.655Z,11.04
2017-05-03T06:47:09.155Z,10.92
2017-05-03T06:47:34.630Z,10.92
2017-05-03T06:48:00.142Z,11
2017-05-03T06:48:25.658Z,11.08
2017-05-03T06:48:51.173Z,11.05
2017-05-03T06:49:16.626Z,11.04
2017-05-03T06:49:42.164Z,11.02
2017-05-03T06:50:07.600Z,11.07
2017-05-03T06:50:33.122Z,11.14
2017-05-03T06:50:58.582Z,11.18
2017-05-03T06:51:24.032Z,11.12
2017-05-03T06:51:49.507Z,11.14
2017-05-03T06:52:14.983Z,11.19
2017-05-03T06:52:40.432Z,11.23
2017-05-03T06:53:05.884Z,11.19
2017-05-03T06:53:31.360Z,11.32
2017-05-03T06:53:56.868Z,11.33
2017-05-03T06:54:22.343Z,11.41
2017-05-03T06:54:47.830Z,11.3
2017-05-03T06:55:13.304Z,11.33
2017-05-03T06:55:38.758Z,11.45
2017-05-03T06:56:04.211Z,11.4
2017-05-03T06:56:29.683Z,11.48
2017-05-03T06:56:55.179Z,11.44
2017-05-03T06:57:20.742Z,11.48
2017-05-03T06:57:46.221Z,11.51
2017-05-03T06:58:11.693Z,11.6
2017-05-03T06:58:37.155Z,11.63
2017-05-03T06:59:02.666Z,11.65
2017-05-03T06:59:28.146Z,11.7
2017-05-03T06:59:53.577Z,11.7
2017-05-03T07:00:19.068Z,11.77
2017-05-03T07:00:44.552Z,11.73
2017-05-03T07:01:10.044Z,11.84
2017-05-03T07:01:35.512Z,11.81
2017-05-03T07:02:00.983Z,11.83
2017-05-03T07:02:26.451Z,11.91
2017-05-03T07:02:51.931Z,11.95
2017-05-03T07:03:17.371Z,11.84
2017-05-03T07:03:42.842Z,11.94
2017-05-03T07:04:08.323Z,11.84
2017-05-03T07:04:33.818Z,11.94
2017-05-03T07:04:59.299Z,11.97
2017-05-03T07:05:24.770Z,12.09
2017-05-03T07:05:50.233Z,11.87
2017-05-03T07:06:15.718Z,11.94
2017-05-03T07:06:41.190Z,11.87
2017-05-03T07:07:06.692Z,11.87
2017-05-03T07:07:32.126Z,11.87
2017-05-03T07:07:57.655Z,11.87
2017-05-03T07:08:23.149Z,11.78
2017-05-03T07:08:48.648Z,11.83
2017-05-03T07:09:14.110Z,11.88
2017-05-03T07:09:39.591Z,11.78
2017-05-03T07:10:05.074Z,11.72
2017-05-03T07:10:30.569Z,11.72
2017-05-03T07:10:56.030Z,11.81
2017-05-03T07:11:21.524Z,11.72
2017-05-03T07:11:47.029Z,11.7
2017-05-03T07:12:12.484Z,11.73
2017-05-03T07:12:37.981Z,11.8
2017-05-03T07:13:03.454Z,11.8
2017-05-03T07:13:28.958Z,11.77
2017-05-03T07:13:54.420Z,11.84
2017-05-03T07:14:19.900Z,11.8
2017-05-03T07:14:45.376Z,11.77
2017-05-03T07:15:10.896Z,11.87
2017-05-03T07:15:36.394Z,11.88
2017-05-03T07:16:01.838Z,11.84
2017-05-03T07:16:27.358Z,11.78
2017-05-03T07:16:52.804Z,11.84
2017-05-03T07:17:18.296Z,11.81
2017-05-03T07:17:43.802Z,11.87
2017-05-03T07:18:09.257Z,11.86
2017-05-03T07:18:34.752Z,11.88
2017-05-03T07:19:00.233Z,11.97
2017-05-03T07:19:25.704Z,11.94
2017-05-03T07:19:51.120Z,11.88
2017-05-03T07:20:16.595Z,11.88
2017-05-03T07:20:42.041Z,11.97
2017-05-03T07:21:07.511Z,11.99
2017-05-03T07:21:32.991Z,11.86
2017-05-03T07:21:58.497Z,11.87
2017-05-03T07:22:23.981Z,11.94
2017-05-03T07:22:49.472Z,12.02
2017-05-03T07:23:14.915Z,11.95
2017-05-03T07:23:40.362Z,12.03
2017-05-03T07:24:05.819Z,11.95
2017-05-03T07:24:31.297Z,12.04
2017-05-03T07:24:56.796Z,12.09
2017-05-03T07:25:22.270Z,12.1
2017-05-03T07:25:47.771Z,12.12
2017-05-03T07:26:13.249Z,12.24
2017-05-03T07:26:38.746Z,12.2
2017-05-03T07:27:04.218Z,12.29
2017-05-03T07:27:29.694Z,12.28
2017-05-03T07:27:55.198Z,12.25
2017-05-03T07:28:20.696Z,12.27
2017-05-03T07:28:46.157Z,12.37
2017-05-03T07:29:11.627Z,12.36
2017-05-03T07:29:37.075Z,12.43
2017-05-03T07:30:02.574Z,12.49
2017-05-03T07:30:28.071Z,12.55
2017-05-03T07:30:53.513Z,12.6
2017-05-03T07:31:19.016Z,12.72
2017-05-03T07:31:44.466Z,12.65
2017-05-03T07:32:09.959Z,12.82
2017-05-03T07:32:35.455Z,12.83
2017-05-03T07:33:00.944Z,12.95
2017-05-03T07:33:26.388Z,12.93
2017-05-03T07:33:51.857Z,13.04
2017-05-03T07:34:17.348Z,13.12
2017-05-03T07:34:42.824Z,13.13
2017-05-03T07:35:08.293Z,13.22
2017-05-03T07:35:33.769Z,13.22
2017-05-03T07:35:59.279Z,13.27
2017-05-03T07:36:24.798Z,13.35
2017-05-03T07:36:50.244Z,13.35
2017-05-03T07:37:15.725Z,13.38
2017-05-03T07:38:14.272Z,13.33
2017-05-03T07:38:39.750Z,13.47
2017-05-03T07:39:05.220Z,13.33
2017-05-03T07:39:30.741Z,13.49
2017-05-03T07:39:56.191Z,13.5
2017-05-03T07:40:21.677Z,13.53
2017-05-03T07:40:47.129Z,13.65
2017-05-03T07:41:34.947Z,13.63
2017-05-03T07:42:00.412Z,13.59
2017-05-03T07:42:25.898Z,13.62
2017-05-03T07:42:51.394Z,13.59
2017-05-03T07:43:16.865Z,13.65
2017-05-03T07:43:42.355Z,13.6
2017-05-03T07:44:07.789Z,13.59
2017-05-03T07:44:33.276Z,13.63
2017-05-03T07:44:58.772Z,13.63
2017-05-03T07:45:24.245Z,13.54
2017-05-03T07:45:49.760Z,13.56
2017-05-03T07:46:15.277Z,13.49
2017-05-03T07:46:40.776Z,13.39
2017-05-03T07:47:06.273Z,13.42
2017-05-03T07:47:31.783Z,13.33
2017-05-03T07:47:57.275Z,13.3
2017-05-03T07:48:22.745Z,13.42
2017-05-03T07:48:48.277Z,13.33
2017-05-03T07:49:13.724Z,13.2
2017-05-03T07:49:39.212Z,13.23
2017-05-03T07:50:04.691Z,13.16
2017-05-03T07:50:30.153Z,13.12
2017-05-03T07:50:55.627Z,13.2
2017-05-03T07:51:21.160Z,13.22
2017-05-03T07:51:46.812Z,13.22
2017-05-03T07:52:12.304Z,13.18
2017-05-03T07:52:37.780Z,13.22
2017-05-03T07:53:03.245Z,13.18
2017-05-03T07:53:28.750Z,13.19
2017-05-03T07:53:54.235Z,13.25
2017-05-03T07:54:19.897Z,13.27
2017-05-03T07:54:45.398Z,13.15
2017-05-03T07:55:10.863Z,13.22
2017-05-03T07:55:36.330Z,13.22
2017-05-03T07:56:01.836Z,13.22
2017-05-03T07:56:27.281Z,13.19
2017-05-03T07:56:52.771Z,13.2
2017-05-03T07:57:18.298Z,13.19
2017-05-03T07:57:43.817Z,13.2
2017-05-03T07:58:09.262Z,13.25
2017-05-03T07:58:34.759Z,13.27
2017-05-03T07:59:00.242Z,13.23
2017-05-03T07:59:25.723Z,13.28
2017-05-03T07:59:51.209Z,13.2
2017-05-03T08:00:16.704Z,13.19
2017-05-03T08:00:42.153Z,13.28
2017-05-03T08:01:07.656Z,13.18
2017-05-03T08:01:33.130Z,13.27
2017-05-03T08:01:58.615Z,13.38
2017-05-03T08:02:24.113Z,13.38
2017-05-03T08:02:49.603Z,13.42
2017-05-03T08:03:15.084Z,13.52
2017-05-03T08:03:40.601Z,13.52
2017-05-03T08:04:06.092Z,13.56
2017-05-03T08:04:31.548Z,13.6
2017-05-03T08:04:57.019Z,13.62
2017-05-03T08:05:22.497Z,13.62
2017-05-03T08:05:47.967Z,13.57
2017-05-03T08:06:13.440Z,13.62
2017-05-03T08:06:38.912Z,13.71
2017-05-03T08:07:04.395Z,13.74
2017-05-03T08:07:29.826Z,13.75
2017-05-03T08:07:55.304Z,13.75
2017-05-03T08:08:20.768Z,13.87
2017-05-03T08:08:46.251Z,13.87
2017-05-03T08:09:11.731Z,13.92
2017-05-03T08:09:37.224Z,13.89
2017-05-03T08:10:02.712Z,13.92
2017-05-03T08:10:28.162Z,13.89
2017-05-03T08:10:53.613Z,13.89
2017-05-03T08:11:19.110Z,13.89
2017-05-03T08:11:44.587Z,13.89
2017-05-03T08:12:10.074Z,13.89
2017-05-03T08:12:35.538Z,13.75
2017-05-03T08:13:01.048Z,13.78
2017-05-03T08:13:26.557Z,13.86
2017-05-03T08:13:52.051Z,13.81
2017-05-03T08:14:17.548Z,13.75
2017-05-03T08:14:43.013Z,13.81
2017-05-03T08:15:08.517Z,13.74
2017-05-03T08:15:33.979Z,13.74
2017-05-03T08:15:59.461Z,13.67
2017-05-03T08:16:24.936Z,13.62
2017-05-03T08:16:50.398Z,13.57
2017-05-03T08:17:15.870Z,13.54
2017-05-03T08:17:41.363Z,13.5
2017-05-03T08:18:06.839Z,13.46
2017-05-03T08:18:32.335Z,13.39
2017-05-03T08:18:57.808Z,13.39
2017-05-03T08:19:23.302Z,13.39
2017-05-03T08:19:48.805Z,13.38
2017-05-03T08:20:14.268Z,13.37
2017-05-03T08:20:39.730Z,13.28
2017-05-03T08:21:05.184Z,13.38
2017-05-03T08:21:30.659Z,13.44
2017-05-03T08:21:56.113Z,13.44
2017-05-03T08:22:21.637Z,13.41
2017-05-03T08:22:47.088Z,13.53
2017-05-03T08:23:12.561Z,13.46
2017-05-03T08:23:38.073Z,13.49
2017-05-03T08:24:03.528Z,13.53
2017-05-03T08:24:29.033Z,13.53
2017-05-03T08:24:54.540Z,13.56
2017-05-03T08:25:20.001Z,13.54
2017-05-03T08:25:45.513Z,13.6
2017-05-03T08:26:10.968Z,13.59
2017-05-03T08:26:36.473Z,13.65
2017-05-03T08:27:01.984Z,13.68
2017-05-03T08:27:27.449Z,13.78
2017-05-03T08:27:52.933Z,13.79
2017-05-03T08:28:18.345Z,13.86
2017-05-03T08:28:43.821Z,13.78
2017-05-03T08:29:09.336Z,13.92
2017-05-03T08:29:34.815Z,13.89
2017-05-03T08:30:00.313Z,14
2017-05-03T08:30:25.832Z,14.1
2017-05-03T08:30:51.351Z,14.14
2017-05-03T08:31:16.855Z,14.14
2017-05-03T08:31:42.287Z,14.25
2017-05-03T08:32:07.801Z,14.35
2017-05-03T08:32:33.293Z,14.47
2017-05-03T08:32:58.754Z,14.45
2017-05-03T08:33:24.248Z,14.55
2017-05-03T08:33:49.711Z,14.65
2017-05-03T08:34:15.216Z,14.68
2017-05-03T08:34:40.746Z,14.82
2017-05-03T08:35:06.247Z,14.88
2017-05-03T08:35:31.730Z,15.02
2017-05-03T08:35:57.209Z,15.04
2017-05-03T08:36:22.720Z,14.99
2017-05-03T08:36:48.209Z,15.04
2017-05-03T08:37:13.782Z,15.02
2017-05-03T08:37:39.233Z,15.04
2017-05-03T08:38:04.786Z,15.04
2017-05-03T08:38:30.202Z,15.07
2017-05-03T08:38:55.719Z,15.03
2017-05-03T08:39:21.166Z,15.04
2017-05-03T08:39:46.653Z,15.09
2017-05-03T08:40:12.140Z,15.09
2017-05-03T08:40:37.648Z,14.94
2017-05-03T08:41:03.101Z,15.04
2017-05-03T08:41:28.588Z,15.02
2017-05-03T08:41:54.064Z,15.17
2017-05-03T08:42:19.558Z,15.18
2017-05-03T08:42:45.035Z,15.18
2017-05-03T08:43:10.512Z,15.17
2017-05-03T08:43:35.993Z,15.18
2017-05-03T08:44:01.449Z,15.19
2017-05-03T08:44:26.925Z,15.22
2017-05-03T08:44:52.411Z,15.19
2017-05-03T08:45:17.874Z,15.18
2017-05-03T08:45:43.339Z,15.1
2017-05-03T08:46:08.803Z,15.07
2017-05-03T08:46:34.290Z,15.06
2017-05-03T08:46:59.750Z,15.11
2017-05-03T08:47:25.237Z,15.15
2017-05-03T08:47:50.697Z,15.1
2017-05-03T08:48:16.199Z,15.1
2017-05-03T08:48:41.657Z,15
2017-05-03T08:49:07.169Z,15.09
2017-05-03T08:49:32.638Z,15
2017-05-03T08:49:58.122Z,15.06
2017-05-03T08:50:23.591Z,15.14
2017-05-03T08:50:49.058Z,15.06
2017-05-03T08:51:14.560Z,15.06
2017-05-03T08:51:40.058Z,15.18
2017-05-03T08:52:05.553Z,15.15
2017-05-03T08:52:31.027Z,15.17
2017-05-03T08:52:56.505Z,15.27
2017-05-03T08:53:21.982Z,15.28
2017-05-03T08:53:47.480Z,15.33
2017-05-03T08:54:12.952Z,15.42
2017-05-03T08:54:38.441Z,15.42
2017-05-03T08:55:03.891Z,15.54
2017-05-03T08:55:29.387Z,15.52
2017-05-03T08:55:54.838Z,15.51
2017-05-03T08:56:20.293Z,15.57
2017-05-03T08:56:45.791Z,15.62
2017-05-03T08:57:11.276Z,15.61
2017-05-03T08:57:36.809Z,15.64
2017-05-03T08:58:02.276Z,15.59
2017-05-03T08:58:27.826Z,15.43
2017-05-03T08:58:53.308Z,15.55
2017-05-03T08:59:18.919Z,15.47
2017-05-03T08:59:44.456Z,15.52
2017-05-03T09:00:09.975Z,15.49
2017-05-03T09:00:35.452Z,15.52
2017-05-03T09:01:43.695Z,15.42
2017-05-03T09:02:09.138Z,15.43
2017-05-03T09:02:34.608Z,15.39
2017-05-03T09:03:00.058Z,15.31
2017-05-03T09:03:25.529Z,15.4
2017-05-03T09:03:51.089Z,15.33
2017-05-03T09:04:16.563Z,15.31
2017-05-03T09:04:42.056Z,15.33
2017-05-03T09:05:07.521Z,15.4
2017-05-03T09:05:33.038Z,15.39
2017-05-03T09:05:58.542Z,15.39
2017-05-03T09:06:24.008Z,15.47
2017-05-03T09:06:49.465Z,15.52
2017-05-03T09:07:14.931Z,15.57
2017-05-03T09:07:40.397Z,15.46
2017-05-03T09:08:05.867Z,15.54
2017-05-03T09:08:31.338Z,15.51
2017-05-03T09:08:56.840Z,15.52
2017-05-03T09:09:22.339Z,15.54
2017-05-03T09:09:47.846Z,15.55
2017-05-03T09:10:13.307Z,15.52
2017-05-03T09:10:38.824Z,15.64
2017-05-03T09:11:04.293Z,15.7
2017-05-03T09:11:29.756Z,15.62
2017-05-03T09:11:55.259Z,15.7
2017-05-03T09:12:20.731Z,15.75
2017-05-03T09:12:46.216Z,15.82
2017-05-03T09:13:11.689Z,15.82
2017-05-03T09:13:37.188Z,15.98
2017-05-03T09:14:02.681Z,15.95
2017-05-03T09:14:28.133Z,16.02
2017-05-03T09:14:53.575Z,16.17
2017-05-03T09:15:19.085Z,16.2
2017-05-03T09:15:44.604Z,16.29
2017-05-03T09:16:10.076Z,16.29
2017-05-03T09:16:35.563Z,16.23
2017-05-03T09:17:01.076Z,16.28
2017-05-03T09:17:26.578Z,16.42
2017-05-03T09:17:52.076Z,16.41
2017-05-03T09:18:17.571Z,16.49
2017-05-03T09:18:43.060Z,16.56
2017-05-03T09:19:08.543Z,16.65
2017-05-03T09:19:34.046Z,16.69
2017-05-03T09:19:59.558Z,16.71
2017-05-03T09:20:25.060Z,16.68
2017-05-03T09:20:50.521Z,16.66
2017-05-03T09:21:16.042Z,16.75
2017-05-03T09:21:41.523Z,16.71
2017-05-03T09:22:07.057Z,16.69
2017-05-03T09:22:32.536Z,16.65
2017-05-03T09:22:58.040Z,16.6
2017-05-03T09:23:23.520Z,16.64
2017-05-03T09:23:49.003Z,16.46
2017-05-03T09:24:14.464Z,16.53
2017-05-03T09:24:39.949Z,16.47
2017-05-03T09:25:05.448Z,16.42
2017-05-03T09:25:30.901Z,16.43
2017-05-03T09:25:56.422Z,16.39
2017-05-03T09:26:21.871Z,16.39
2017-05-03T09:26:47.433Z,16.38
2017-05-03T09:27:12.954Z,16.46
2017-05-03T09:27:38.436Z,16.43
2017-05-03T09:28:03.917Z,16.35
2017-05-03T09:28:29.409Z,16.35
2017-05-03T09:28:54.873Z,16.38
2017-05-03T09:29:20.323Z,16.39
2017-05-03T09:29:45.818Z,16.38
2017-05-03T09:30:11.289Z,16.38
2017-05-03T09:30:36.771Z,16.36
2017-05-03T09:31:02.253Z,16.49
2017-05-03T09:31:27.727Z,16.47
2017-05-03T09:31:53.226Z,16.54
2017-05-03T09:32:18.682Z,16.53
2017-05-03T09:32:44.164Z,16.47
2017-05-03T09:33:09.651Z,16.53
2017-05-03T09:33:35.133Z,16.51
2017-05-03T09:34:00.599Z,16.51
2017-05-03T09:34:26.085Z,16.43
2017-05-03T09:34:51.540Z,16.41
2017-05-03T09:35:17.027Z,16.39
2017-05-03T09:35:42.505Z,16.39
2017-05-03T09:36:07.968Z,16.41
2017-05-03T09:36:33.422Z,16.39